Time;durP1;ratioP1;P1;durP2;ratioP2;P2;SDS_P1;SDS_P2;PMS_P1;PMS_P2;Temp;Humidity;BMP_temperature;BMP_pressure;BME280_temperature;BME280_humidity;BME280_pressure;Samples;Min_cycle;Max_cycle;Signal;HPM_P1;HPM_P2
2022/01/28 00:00:35;;;;;;;;;;;;;;;;;;4838212;29;20635;-90
2022/01/28 00:03:27;;;;;;;;;;;;;;;;;;4842943;29;19931;-90
2022/01/28 00:06:07;;;;;;;;;;;;;;;;;;4841589;29;19935;-90
2022/01/28 00:08:39;;;;;;;;;;;;;;;;;;4826932;29;20206;-90
2022/01/28 00:11:11;;;;;;;;;;;;;;;;;;4845002;29;19932;-90
2022/01/28 00:13:48;;;;;;;;;;;;;;;;;;4823844;29;19939;-90
2022/01/28 00:40:02;;;;;;;;;;;;;;;;;;4874023;29;19971;-89
2022/01/28 00:42:29;;;;;;;;;;;;;;;;;;4895584;29;19930;-90
2022/01/28 00:45:05;;;;;;;;;;;;;;;;;;4921488;29;20291;-89
2022/01/28 00:47:39;;;;;;;;;;;;;;;;;;4916765;29;19938;-90
2022/01/28 00:50:42;;;;;;;;;;;;;;;;;;4916863;29;19937;-90
2022/01/28 00:53:18;;;;;;;;;;;;;;;;;;4916706;29;20006;-90
2022/01/28 00:56:04;;;;;;;;;;;;;;;;;;4931626;28;19934;-90
2022/01/28 00:59:12;;;;;;;;;;;;;;;;;;;;;
2022/01/28 01:01:47;;;;;;;;;;;;;;;;;;4912367;28;19926;-89
2022/01/28 01:04:44;;;;;;;;;;;;;;;;;;4924637;28;19934;-90
2022/01/28 01:07:48;;;;;;;;;;;;;;;;;;4906960;28;19941;-88
2022/01/28 01:10:55;;;;;;;;;;;;;;;;;;4923671;28;19941;-89
2022/01/28 01:13:28;;;;;;;;;;;;;;;;;;4930574;28;19922;-89
2022/01/28 01:16:13;;;;;;;;;;;;;;;;;;4909528;28;19938;-89
2022/01/28 01:21:42;;;;;;;;;;;;;;;;;;4869664;29;19933;-89
2022/01/28 01:27:53;;;;;;;;;;;;;;;;;;4877181;29;20489;-88
2022/01/28 01:30:38;;;;;;;;;;;;;;;;;;4855900;29;20403;-89
2022/01/28 01:33:18;;;;;;;;;;;;;;;;;;4865977;29;19927;-90
2022/01/28 01:36:00;;;;;;;;;;;;;;;;;;4863521;29;19935;-90
2022/01/28 01:42:13;;;;;;;;;;;;;;;;;;4876487;29;19946;-90
2022/01/28 01:53:53;;;;;;;;;;;;;;;;;;4921528;28;19986;-90
2022/01/28 01:56:37;;;;;;;;;;;;;;;;;;4917785;29;19938;-89
2022/01/28 02:02:05;;;;;;;;;;;;;;;;;;4924139;29;20011;-89
2022/01/28 02:04:54;;;;;;;;;;;;;;;;;;4916957;29;19977;-90
2022/01/28 02:07:37;;;;;;;;;;;;;;;;;;;;;
2022/01/28 02:10:12;;;;;;;;;;;;;;;;;;4919212;29;19931;-89
2022/01/28 02:16:02;;;;;;;;;;;;;;;;;;;;;
2022/01/28 02:18:55;;;;;;;;;;;;;;;;;;4881566;29;19927;-90
2022/01/28 02:24:45;;;;;;;;;;;;;;;;;;4879260;29;19973;-90
2022/01/28 02:30:30;;;;;;;;;;;;;;;;;;4886056;29;20014;-90
2022/01/28 02:33:15;;;;;;;;;;;;;;;;;;4890420;29;20363;-89
2022/01/28 02:36:04;;;;;;;;;;;;;;;;;;4885762;29;20216;-90
2022/01/28 02:38:48;;;;;;;;;;;;;;;;;;4880707;29;20111;-90
2022/01/28 02:42:18;;;;;;;;;;;;;;;;;;4893888;29;20355;-90
2022/01/28 02:44:55;;;;;;;;;;;;;;;;;;4894034;29;19998;-90
2022/01/28 02:47:32;;;;;;;;;;;;;;;;;;4893436;29;19978;-90
2022/01/28 02:50:23;;;;;;;;;;;;;;;;;;4941309;28;19934;-90
2022/01/28 02:56:48;;;;;;;;;;;;;;;;;;;;;
2022/01/28 02:59:41;;;;;;;;;;;;;;;;;;4949705;28;19946;-90
2022/01/28 03:02:38;;;;;;;;;;;;;;;;;;;;;
2022/01/28 03:07:53;;;;;;;;;;;;;;;;;;4949007;28;19926;-90
2022/01/28 03:10:47;;;;;;;;;;;;;;;;;;4932900;29;19930;-90
2022/01/28 03:16:40;;;;;;;;;;;;;;;;;;4860175;29;19938;-88
2022/01/28 03:25:33;;;;;;;;;;;;;;;;;;4919259;29;19930;-90
2022/01/28 03:28:03;;;;;;;;;;;;;;;;;;4880243;29;19997;-90
2022/01/28 03:39:45;;;;;;;;;;;;;;;;;;4888080;29;19923;-89
2022/01/28 03:45:48;;;;;;;;;;;;;;;;;;4938690;28;20395;-89
2022/01/28 03:54:18;;;;;;;;;;;;;;;;;;4941985;28;20300;-89
2022/01/28 03:56:56;;;;;;;;;;;;;;;;;;4935672;28;20435;-90
2022/01/28 03:59:59;;;;;;;;;;;;;;;;;;;;;
2022/01/28 04:02:42;;;;;;;;;;;;;;;;;;4931079;28;19973;-90
2022/01/28 04:23:02;;;;;;;;;;;;;;;;;;;;;
2022/01/28 04:35:31;;;;;;;;;;;;;;;;;;4904675;29;19931;-90
2022/01/28 05:28:42;;;;;;;;;;;;;;;;;;4936551;28;19930;-89
2022/01/28 05:34:27;;;;;;;;;;;;;;;;;;4945311;28;19929;-89
2022/01/28 05:37:10;;;;;;;;;;;;;;;;;;4963666;28;19997;-90
2022/01/28 05:39:47;;;;;;;;;;;;;;;;;;4955094;28;19930;-89
2022/01/28 05:45:44;;;;;;;;;;;;;;;;;;;;;
2022/01/28 05:48:33;;;;;;;;;;;;;;;;;;4944605;28;19933;-89
2022/01/28 05:51:42;;;;;;;;;;;;;;;;;;;;;
2022/01/28 06:13:22;;;;;;;;;;;;;;;;;;4960905;28;19925;-91
2022/01/28 06:19:27;;;;;;;;;;;;;;;;;;4905272;29;20409;-91
2022/01/28 06:22:15;;;;;;;;;;;;;;;;;;4843705;29;20022;-91
2022/01/28 06:25:14;;;;;;;;;;;;;;;;;;;;;
2022/01/28 06:27:53;;;;;;;;;;;;;;;;;;4819691;29;19957;-90
2022/01/28 06:30:29;;;;;;;;;;;;;;;;;;4839063;29;19991;-93
2022/01/28 06:33:20;;;;;;;;;;;;;;;;;;4856453;29;20409;-93
2022/01/28 06:39:11;;;;;;;;;;;;;;;;;;4907937;29;19971;-90
2022/01/28 06:42:13;;;;;;;;;;;;;;;;;;;;;
2022/01/28 06:48:33;;;;;;;;;;;;;;;;;;;;;
2022/01/28 06:54:40;;;;;;;;;;;;;;;;;;;;;
2022/01/28 06:57:33;;;;;;;;;;;;;;;;;;4813441;29;20031;-91
2022/01/28 07:00:19;;;;;;;;;;;;;;;;;;4832909;29;20281;-91
2022/01/28 07:05:57;;;;;;;;;;;;;;;;;;4864441;29;19986;-91
2022/01/28 07:14:28;;;;;;;;;;;;;;;;;;4878973;29;20085;-90
2022/01/28 07:17:53;;;;;;;;;;;;;;;;;;;;;
2022/01/28 07:20:31;;;;;;;;;;;;;;;;;;;;;
2022/01/28 07:32:52;;;;;;;;;;;;;;;;;;5085551;23;19936;-87
2022/01/28 07:35:18;;;;;;;;;;;;;;;;;;4994906;28;20058;-89
2022/01/28 07:37:44;;;;;;;;;;;;;;;;;;4988162;28;20045;-90
2022/01/28 07:40:12;;;;;;;;;;;;;;;;;;4988188;28;19929;-88
2022/01/28 07:42:38;;;;;;;;;;;;;;;;;;4971248;28;20485;-88
2022/01/28 07:45:05;;;;;;;;;;;;;;;;;;4982095;28;19921;-88
2022/01/28 07:47:32;;;;;;;;;;;;;;;;;;4986501;28;19947;-87
2022/01/28 07:49:59;;;;;;;;;;;;;;;;;;4998661;28;19925;-89
2022/01/28 07:52:26;;;;;;;;;;;;;;;;;;5000979;28;19925;-87
2022/01/28 07:54:54;;;;;;;;;;;;;;;;;;4994919;28;19929;-88
2022/01/28 07:57:30;;;;;;;;;;;;;;;;;;4988659;28;19971;-88
2022/01/28 07:59:57;;;;;;;;;;;;;;;;;;4996510;28;19929;-88
2022/01/28 08:02:23;;;;;;;;;;;;;;;;;;4981110;28;19929;-88
2022/01/28 08:04:50;;;;;;;;;;;;;;;;;;4988440;28;20021;-88
2022/01/28 08:07:17;;;;;;;;;;;;;;;;;;4998097;28;20326;-87
2022/01/28 08:09:44;;;;;;;;;;;;;;;;;;4993564;28;19955;-91
2022/01/28 08:12:13;;;;;;;;;;;;;;;;;;5001193;28;19936;-87
2022/01/28 08:14:40;;;;;;;;;;;;;;;;;;4997535;28;19921;-87
2022/01/28 08:17:06;;;;;;;;;;;;;;;;;;4961566;28;19925;-86
2022/01/28 08:19:32;;;;;;;;;;;;;;;;;;4962802;28;19957;-90
2022/01/28 08:21:58;;;;;;;;;;;;;;;;;;4981669;28;19969;-88
2022/01/28 08:24:24;;;;;;;;;;;;;;;;;;4971220;28;19980;-88
2022/01/28 08:26:50;;;;;;;;;;;;;;;;;;4979451;28;20009;-88
2022/01/28 08:29:16;;;;;;;;;;;;;;;;;;4985587;28;19928;-87
2022/01/28 08:31:43;;;;;;;;;;;;;;;;;;4976795;28;19964;-87
2022/01/28 08:34:10;;;;;;;;;;;;;;;;;;4963921;28;20292;-88
2022/01/28 08:36:36;;;;;;;;;;;;;;;;;;4971634;28;19929;-89
2022/01/28 08:39:44;;;;;;;;;;;;;;;;;;4983484;28;20009;-87
2022/01/28 08:42:23;;;;;;;;;;;;;;;;;;;;;
2022/01/28 08:45:14;;;;;;;;;;;;;;;;;;4954896;28;19981;-88
2022/01/28 08:47:40;;;;;;;;;;;;;;;;;;4932581;28;20376;-89
2022/01/28 08:50:18;;;;;;;;;;;;;;;;;;4942472;28;19934;-90
2022/01/28 08:52:46;;;;;;;;;;;;;;;;;;4922090;28;20408;-89
2022/01/28 08:55:14;;;;;;;;;;;;;;;;;;4936839;28;20294;-88
2022/01/28 09:07:06;;;;;;;;;;;;;;;;;;4915723;29;20085;-85
2022/01/28 09:09:33;;;;;;;;;;;;;;;;;;4912376;29;19966;-85
2022/01/28 09:14:48;;;;;;;;;;;;;;;;;;4896745;29;19931;-86
2022/01/28 09:17:15;;;;;;;;;;;;;;;;;;4933345;28;19926;-86
2022/01/28 09:19:48;;;;;;;;;;;;;;;;;;4924394;28;20016;-86
2022/01/28 09:22:22;;;;;;;;;;;;;;;;;;4927195;28;19929;-84
2022/01/28 09:24:49;;;;;;;;;;;;;;;;;;4922463;28;19989;-85
2022/01/28 09:27:16;;;;;;;;;;;;;;;;;;4944096;28;19922;-86
2022/01/28 10:15:02;;;;;;;;;;;;;;;;;;5248706;22;19936;-87
2022/01/28 10:20:34;;;;;;;;;;;;;;;;;;4988347;28;19925;-87
2022/01/28 10:23:23;;;;;;;;;;;;;;;;;;;;;
2022/01/28 10:26:13;;;;;;;;;;;;;;;;;;5025355;28;19944;-87
2022/01/28 10:28:42;;;;;;;;;;;;;;;;;;5008905;28;19921;-87
2022/01/28 10:34:11;;;;;;;;;;;;;;;;;;4992598;28;19921;-87
2022/01/28 10:36:46;;;;;;;;;;;;;;;;;;4989677;28;19925;-87
2022/01/28 10:40:02;;;;;;;;;;;;;;;;;;;;;
2022/01/28 10:42:40;;;;;;;;;;;;;;;;;;5002818;28;19979;-88
2022/01/28 10:45:16;;;;;;;;;;;;;;;;;;4994600;28;19925;-87
2022/01/28 10:47:45;;;;;;;;;;;;;;;;;;5004560;28;19925;-88
2022/01/28 10:50:17;;;;;;;;;;;;;;;;;;4991716;28;20390;-88
2022/01/28 10:53:01;;;;;;;;;;;;;;;;;;4985114;28;19928;-88
2022/01/28 10:58:47;;;;;;;;;;;;;;;;;;5001415;28;20020;-87
2022/01/28 11:01:17;;;;;;;;;;;;;;;;;;4975238;28;20515;-88
2022/01/28 11:03:45;;;;;;;;;;;;;;;;;;4988024;28;19925;-87
2022/01/28 11:06:33;;;;;;;;;;;;;;;;;;4993428;28;19976;-87
2022/01/28 11:09:13;;;;;;;;;;;;;;;;;;4986222;28;20308;-87
2022/01/28 11:11:48;;;;;;;;;;;;;;;;;;4982687;28;20021;-87
2022/01/28 11:14:17;;;;;;;;;;;;;;;;;;5012479;28;19925;-88
2022/01/28 11:16:45;;;;;;;;;;;;;;;;;;5010450;28;19909;-87
2022/01/28 11:19:34;;;;;;;;;;;;;;;;;;;;;
2022/01/28 11:22:11;;;;;;;;;;;;;;;;;;;;;
2022/01/28 11:27:51;;;;;;;;;;;;;;;;;;4934324;29;19927;-86
2022/01/28 11:30:29;;;;;;;;;;;;;;;;;;4983180;28;20015;-87
2022/01/28 11:33:15;;;;;;;;;;;;;;;;;;;;;
2022/01/28 11:35:49;;;;;;;;;;;;;;;;;;5006092;28;19929;-87
2022/01/28 11:38:24;;;;;;;;;;;;;;;;;;4992506;28;19921;-87
2022/01/28 11:41:00;;;;;;;;;;;;;;;;;;4993206;28;19976;-87
2022/01/28 11:43:43;;;;;;;;;;;;;;;;;;;;;
2022/01/28 11:46:38;;;;;;;;;;;;;;;;;;4992520;28;19921;-87
2022/01/28 11:49:04;;;;;;;;;;;;;;;;;;4996807;28;20017;-86
2022/01/28 11:51:44;;;;;;;;;;;;;;;;;;5003431;28;19933;-87
2022/01/28 11:54:13;;;;;;;;;;;;;;;;;;4991827;28;19987;-87
2022/01/28 11:56:47;;;;;;;;;;;;;;;;;;4987990;28;20348;-86
2022/01/28 11:59:17;;;;;;;;;;;;;;;;;;4988439;28;20353;-87
2022/01/28 12:01:54;;;;;;;;;;;;;;;;;;4986980;28;19983;-87
2022/01/28 12:04:31;;;;;;;;;;;;;;;;;;4983862;28;19929;-87
2022/01/28 12:07:01;;;;;;;;;;;;;;;;;;4986796;28;19922;-87
2022/01/28 12:09:30;;;;;;;;;;;;;;;;;;4974790;28;19988;-87
2022/01/28 12:15:10;;;;;;;;;;;;;;;;;;4992825;28;19934;-87
2022/01/28 12:17:36;;;;;;;;;;;;;;;;;;4993101;28;19929;-87
2022/01/28 12:20:03;;;;;;;;;;;;;;;;;;4985668;28;20376;-87
2022/01/28 12:22:29;;;;;;;;;;;;;;;;;;4997514;28;19964;-87
2022/01/28 12:25:06;;;;;;;;;;;;;;;;;;5006829;28;19956;-87
2022/01/28 12:27:52;;;;;;;;;;;;;;;;;;;;;
2022/01/28 12:30:18;;;;;;;;;;;;;;;;;;4988610;28;19980;-88
2022/01/28 12:33:03;;;;;;;;;;;;;;;;;;4992754;28;19921;-87
2022/01/28 12:35:46;;;;;;;;;;;;;;;;;;4989535;28;19928;-89
2022/01/28 12:38:31;;;;;;;;;;;;;;;;;;4978854;28;20392;-86
2022/01/28 12:41:05;;;;;;;;;;;;;;;;;;4968333;28;19922;-86
2022/01/28 12:43:31;;;;;;;;;;;;;;;;;;5007924;28;19925;-85
2022/01/28 12:46:00;;;;;;;;;;;;;;;;;;4990092;28;19921;-84
2022/01/28 13:00:56;;;;;;;;;;;;;;;;;;4921577;28;19930;-83
2022/01/28 13:03:27;;;;;;;;;;;;;;;;;;4970474;28;19936;-83
2022/01/28 13:06:02;;;;;;;;;;;;;;;;;;4992413;28;20035;-86
2022/01/28 13:08:28;;;;;;;;;;;;;;;;;;4973790;28;19925;-84
2022/01/28 13:10:54;;;;;;;;;;;;;;;;;;4979904;28;19929;-87
2022/01/28 13:13:33;;;;;;;;;;;;;;;;;;;;;
2022/01/28 13:16:43;;;;;;;;;;;;;;;;;;4998967;28;19932;-90
2022/01/28 13:19:25;;;;;;;;;;;;;;;;;;4988817;28;20876;-86
2022/01/28 13:22:17;;;;;;;;;;;;;;;;;;4996474;28;19932;-87
2022/01/28 13:24:56;;;;;;;;;;;;;;;;;;;;;
2022/01/28 13:27:54;;;;;;;;;;;;;;;;;;4990486;28;19944;-87
2022/01/28 13:40:03;;;;;;;;;;;;;;;;;;4988510;28;19983;-86
2022/01/28 13:42:29;;;;;;;;;;;;;;;;;;4951364;28;19937;-87
2022/01/28 13:44:58;;;;;;;;;;;;;;;;;;4953591;28;20315;-87
2022/01/28 13:47:33;;;;;;;;;;;;;;;;;;4975818;28;19933;-89
2022/01/28 13:50:26;;;;;;;;;;;;;;;;;;4901713;29;19946;-87
2022/01/28 13:53:03;;;;;;;;;;;;;;;;;;4915092;28;19962;-87
2022/01/28 13:58:54;;;;;;;;;;;;;;;;;;5026225;22;20503;-87
2022/01/28 14:01:39;;;;;;;;;;;;;;;;;;5014064;28;19957;-86
2022/01/28 14:04:11;;;;;;;;;;;;;;;;;;4981635;28;19948;-88
2022/01/28 14:06:38;;;;;;;;;;;;;;;;;;4994122;28;20311;-87
2022/01/28 14:09:14;;;;;;;;;;;;;;;;;;;;;
2022/01/28 14:11:45;;;;;;;;;;;;;;;;;;4984971;28;20289;-85
2022/01/28 14:17:03;;;;;;;;;;;;;;;;;;5620534;22;20310;-95
2022/01/28 14:19:29;;;;;;;;;;;;;;;;;;5015691;28;20011;-92
2022/01/28 14:21:57;;;;;;;;;;;;;;;;;;5015310;28;19924;-91
2022/01/28 14:24:33;;;;;;;;;;;;;;;;;;5096191;27;19916;-84
2022/01/28 14:36:09;;;;;;;;;;;;;;;;;;5070854;28;20259;-86
2022/01/28 14:38:35;;;;;;;;;;;;;;;;;;5058573;28;19927;-86
2022/01/28 14:41:03;;;;;;;;;;;;;;;;;;5087501;28;19956;-86
2022/01/28 14:43:30;;;;;;;;;;;;;;;;;;5092350;28;19935;-87
2022/01/28 14:45:56;;;;;;;;;;;;;;;;;;5083347;28;20051;-86
2022/01/28 14:48:26;;;;;;;;;;;;;;;;;;5069004;28;20003;-87
2022/01/28 14:55:10;;;;;;;;;;;;;;;;;;;;;
2022/01/28 14:57:52;;;;;;;;;;;;;;;;;;5066472;28;19924;-88
2022/01/28 15:00:36;;;;;;;;;;;;;;;;;;5065660;28;19967;-86
2022/01/28 15:03:05;;;;;;;;;;;;;;;;;;5054283;28;19924;-86
2022/01/28 15:05:31;;;;;;;;;;;;;;;;;;5082745;28;19921;-86
2022/01/28 15:07:57;;;;;;;;;;;;;;;;;;5104141;27;19933;-87
2022/01/28 15:16:05;;;;;;;;;;;;;;;;;;5086283;28;20272;-86
2022/01/28 15:18:40;;;;;;;;;;;;;;;;;;5055872;28;19923;-87
2022/01/28 15:21:14;;;;;;;;;;;;;;;;;;5059639;28;19958;-89
2022/01/28 15:23:41;;;;;;;;;;;;;;;;;;5051999;28;20290;-88
2022/01/28 15:26:18;;;;;;;;;;;;;;;;;;;;;
2022/01/28 15:38:37;;;;;;;;;;;;;;;;;;;;;
2022/01/28 15:41:28;;;;;;;;;;;;;;;;;;4987210;28;19920;-86
2022/01/28 15:44:11;;;;;;;;;;;;;;;;;;;;;
2022/01/28 15:50:12;;;;;;;;;;;;;;;;;;4990888;28;19979;-87
2022/01/28 15:52:55;;;;;;;;;;;;;;;;;;;;;
2022/01/28 15:58:24;;;;;;;;;;;;;;;;;;5033816;28;19929;-86
2022/01/28 16:03:52;;;;;;;;;;;;;;;;;;5060926;28;20481;-87
2022/01/28 16:06:30;;;;;;;;;;;;;;;;;;5030636;28;19925;-87
2022/01/28 16:12:01;;;;;;;;;;;;;;;;;;5068654;28;19981;-87
2022/01/28 16:14:47;;;;;;;;;;;;;;;;;;5032734;28;19933;-87
2022/01/28 16:17:44;;;;;;;;;;;;;;;;;;5033134;28;20395;-86
2022/01/28 16:20:12;;;;;;;;;;;;;;;;;;5030884;28;19925;-86
2022/01/28 16:22:58;;;;;;;;;;;;;;;;;;5026195;28;19928;-87
2022/01/28 16:25:25;;;;;;;;;;;;;;;;;;5043658;28;20039;-87
2022/01/28 16:27:53;;;;;;;;;;;;;;;;;;5024394;28;19921;-87
2022/01/28 16:30:47;;;;;;;;;;;;;;;;;;5052196;28;24868;-88
2022/01/28 16:34:00;;;;;;;;;;;;;;;;;;5057568;28;19939;-87
2022/01/28 16:36:28;;;;;;;;;;;;;;;;;;5027064;28;19929;-85
2022/01/28 16:42:11;;;;;;;;;;;;;;;;;;5034413;28;20410;-89
2022/01/28 16:48:29;;;;;;;;;;;;;;;;;;;;;
2022/01/28 16:50:58;;;;;;;;;;;;;;;;;;5013898;28;19929;-86
2022/01/28 16:53:42;;;;;;;;;;;;;;;;;;4996190;28;19928;-86
2022/01/28 16:59:36;;;;;;;;;;;;;;;;;;4996907;28;20035;-85
2022/01/28 17:02:22;;;;;;;;;;;;;;;;;;4984970;28;19957;-86
2022/01/28 17:05:03;;;;;;;;;;;;;;;;;;4957751;28;20024;-85
2022/01/28 17:14:08;;;;;;;;;;;;;;;;;;4914817;29;19927;-86
2022/01/28 17:16:59;;;;;;;;;;;;;;;;;;;;;
2022/01/28 17:20:09;;;;;;;;;;;;;;;;;;;;;
2022/01/28 17:23:00;;;;;;;;;;;;;;;;;;4986518;28;19930;-86
2022/01/28 17:25:37;;;;;;;;;;;;;;;;;;4996242;28;20031;-85
2022/01/28 17:41:07;;;;;;;;;;;;;;;;;;4986042;28;19937;-86
2022/01/28 17:43:43;;;;;;;;;;;;;;;;;;4968816;28;20361;-86
2022/01/28 17:56:27;;;;;;;;;;;;;;;;;;4990622;28;19924;-86
2022/01/28 17:58:54;;;;;;;;;;;;;;;;;;4968532;28;20378;-85
2022/01/28 18:01:30;;;;;;;;;;;;;;;;;;4985990;28;19926;-85
2022/01/28 18:04:22;;;;;;;;;;;;;;;;;;4986283;28;20017;-86
2022/01/28 18:06:54;;;;;;;;;;;;;;;;;;4950928;28;20385;-85
2022/01/28 18:09:27;;;;;;;;;;;;;;;;;;4985817;28;19953;-86
2022/01/28 18:11:56;;;;;;;;;;;;;;;;;;4957079;28;19964;-86
2022/01/28 18:14:23;;;;;;;;;;;;;;;;;;4984658;28;20017;-86
2022/01/28 18:19:45;;;;;;;;;;;;;;;;;;5023365;28;19943;-86
2022/01/28 18:22:20;;;;;;;;;;;;;;;;;;5030233;28;20355;-86
2022/01/28 18:24:47;;;;;;;;;;;;;;;;;;4983769;28;20440;-87
2022/01/28 18:27:17;;;;;;;;;;;;;;;;;;4926434;28;20028;-86
2022/01/28 18:29:58;;;;;;;;;;;;;;;;;;4947195;28;20503;-85
2022/01/28 18:32:26;;;;;;;;;;;;;;;;;;4949959;28;20009;-86
2022/01/28 18:35:13;;;;;;;;;;;;;;;;;;4972555;28;19930;-85
2022/01/28 18:40:31;;;;;;;;;;;;;;;;;;4948859;28;19941;-85
2022/01/28 18:52:15;;;;;;;;;;;;;;;;;;4990729;28;20383;-85
2022/01/28 18:54:58;;;;;;;;;;;;;;;;;;4995274;28;20066;-85
2022/01/28 19:11:06;;;;;;;;;;;;;;;;;;5023225;28;19927;-85
2022/01/28 19:13:59;;;;;;;;;;;;;;;;;;5006484;28;20410;-85
2022/01/28 20:28:37;;;;;;;;;;;;;;;;;;4840918;29;19930;-84
2022/01/28 20:47:53;;;;;;;;;;;;;;;;;;;;;
2022/01/28 20:50:59;;;;;;;;;;;;;;;;;;;;;
2022/01/28 20:54:34;;;;;;;;;;;;;;;;;;;;;
2022/01/28 21:06:46;;;;;;;;;;;;;;;;;;;;;
2022/01/28 21:51:28;;;;;;;;;;;;;;;;;;5555591;23;19981;-84
2022/01/28 22:12:14;;;;;;;;;;;;;;;;;;4889094;29;20119;-85
2022/01/28 22:15:07;;;;;;;;;;;;;;;;;;;;;
2022/01/28 22:24:24;;;;;;;;;;;;;;;;;;4832484;29;19981;-84
2022/01/28 22:27:08;;;;;;;;;;;;;;;;;;4823009;29;20007;-84
2022/01/28 22:55:09;;;;;;;;;;;;;;;;;;;;;
2022/01/28 22:57:56;;;;;;;;;;;;;;;;;;4836920;29;20247;-85
2022/01/28 23:00:58;;;;;;;;;;;;;;;;;;4782467;29;19933;-85
2022/01/28 23:04:10;;;;;;;;;;;;;;;;;;4784707;29;19978;-86
2022/01/28 23:13:32;;;;;;;;;;;;;;;;;;4819198;29;19947;-85
2022/01/28 23:16:46;;;;;;;;;;;;;;;;;;4813863;29;21021;-85
2022/01/28 23:22:43;;;;;;;;;;;;;;;;;;4763883;29;20481;-85
2022/01/28 23:25:18;;;;;;;;;;;;;;;;;;4773369;29;20008;-84
2022/01/28 23:28:06;;;;;;;;;;;;;;;;;;4783858;29;20053;-85
2022/01/28 23:31:14;;;;;;;;;;;;;;;;;;4738494;29;20020;-84
2022/01/28 23:34:01;;;;;;;;;;;;;;;;;;;;;
2022/01/28 23:36:56;;;;;;;;;;;;;;;;;;4764352;29;20741;-84
2022/01/28 23:45:17;;;;;;;;;;;;;;;;;;4781012;29;19980;-84
2022/01/28 23:47:58;;;;;;;;;;;;;;;;;;4766394;29;19983;-84
2022/01/28 23:53:39;;;;;;;;;;;;;;;;;;4766766;29;20562;-84
2022/01/28 23:56:37;;;;;;;;;;;;;;;;;;4774327;29;19949;-84
2022/01/28 23:59:04;;;;;;;;;;;;;;;;;;4776176;29;19972;-85
